Time;durP1;ratioP1;P1;durP2;ratioP2;P2;SDS_P1;SDS_P2;PMS_P1;PMS_P2;Temp;Humidity;BMP_temperature;BMP_pressure;BME280_temperature;BME280_humidity;BME280_pressure;Samples;Min_cycle;Max_cycle;Signal;HPM_P1;HPM_P2
2022/12/06 00:01:09;;;;;;;11.05;2.67;;;;;;;;;;5106762;28;20040;-69
2022/12/06 00:03:35;;;;;;;8.50;2.58;;;;;;;;;;5087624;28;20043;-69
2022/12/06 00:06:03;;;;;;;13.13;2.65;;;;;;;;;;5105969;28;20112;-70
2022/12/06 00:08:29;;;;;;;7.82;2.40;;;;;;;;;;5088343;28;20050;-69
2022/12/06 00:11:01;;;;;;;7.38;2.30;;;;;;;;;;5087409;28;20074;-69
2022/12/06 00:13:27;;;;;;;8.55;2.65;;;;;;;;;;5105581;28;20046;-69
2022/12/06 00:15:54;;;;;;;12.23;2.72;;;;;;;;;;5103252;28;20035;-69
2022/12/06 00:18:20;;;;;;;13.77;3.33;;;;;;;;;;5085403;28;20036;-69
2022/12/06 00:20:47;;;;;;;5.57;2.15;;;;;;;;;;5097837;28;20104;-69
2022/12/06 00:23:13;;;;;;;7.00;2.25;;;;;;;;;;5085391;28;20047;-69
2022/12/06 00:25:39;;;;;;;7.82;2.03;;;;;;;;;;5086786;28;20040;-69
2022/12/06 00:28:06;;;;;;;5.57;2.10;;;;;;;;;;5088172;28;21664;-69
2022/12/06 00:30:32;;;;;;;7.22;2.38;;;;;;;;;;5106742;28;20031;-69
2022/12/06 00:32:58;;;;;;;6.90;2.33;;;;;;;;;;5105814;28;20163;-70
2022/12/06 00:35:24;;;;;;;6.05;2.20;;;;;;;;;;5104242;28;20040;-69
2022/12/06 00:37:50;;;;;;;10.70;2.50;;;;;;;;;;5105183;28;20042;-69
2022/12/06 00:40:16;;;;;;;8.13;2.50;;;;;;;;;;5105045;28;20044;-69
2022/12/06 00:42:43;;;;;;;7.93;2.35;;;;;;;;;;5088032;28;20479;-70
2022/12/06 00:45:09;;;;;;;7.05;2.30;;;;;;;;;;5104905;28;20067;-69
2022/12/06 00:47:35;;;;;;;9.57;2.35;;;;;;;;;;5103476;28;20043;-69
2022/12/06 00:50:02;;;;;;;8.88;2.42;;;;;;;;;;5105240;28;20051;-69
2022/12/06 00:52:28;;;;;;;13.95;2.78;;;;;;;;;;5105637;28;20138;-69
2022/12/06 00:54:54;;;;;;;9.18;3.13;;;;;;;;;;5102248;28;20129;-69
2022/12/06 00:57:20;;;;;;;8.85;2.17;;;;;;;;;;5105408;28;20520;-69
2022/12/06 00:59:46;;;;;;;9.25;2.33;;;;;;;;;;5069824;28;20047;-69
2022/12/06 01:02:12;;;;;;;9.23;2.50;;;;;;;;;;5086176;28;20039;-69
2022/12/06 01:04:38;;;;;;;8.98;3.45;;;;;;;;;;5102970;28;20482;-69
2022/12/06 01:07:05;;;;;;;10.88;2.67;;;;;;;;;;5104684;28;20127;-69
2022/12/06 01:09:31;;;;;;;9.10;2.83;;;;;;;;;;5085912;28;20052;-69
2022/12/06 01:11:58;;;;;;;8.40;3.30;;;;;;;;;;5084487;28;20039;-69
2022/12/06 01:14:24;;;;;;;7.50;2.90;;;;;;;;;;5101319;28;20071;-68
2022/12/06 01:16:50;;;;;;;8.02;3.25;;;;;;;;;;5104489;28;20126;-69
2022/12/06 01:19:16;;;;;;;10.23;3.50;;;;;;;;;;5105287;28;20043;-69
2022/12/06 01:21:42;;;;;;;6.63;3.15;;;;;;;;;;5103946;28;20047;-69
2022/12/06 01:24:09;;;;;;;10.88;3.97;;;;;;;;;;5104539;28;20043;-69
2022/12/06 01:26:35;;;;;;;7.35;3.33;;;;;;;;;;5103997;28;20159;-69
2022/12/06 01:29:01;;;;;;;11.88;4.00;;;;;;;;;;5101674;28;20131;-69
2022/12/06 01:31:28;;;;;;;10.05;3.95;;;;;;;;;;5103407;28;20093;-69
2022/12/06 01:33:54;;;;;;;12.10;3.30;;;;;;;;;;5104230;28;20031;-69
2022/12/06 01:36:23;;;;;;;6.72;3.40;;;;;;;;;;5086738;28;20044;-69
2022/12/06 01:38:56;;;;;;;12.77;3.95;;;;;;;;;;5103867;28;20048;-69
2022/12/06 01:41:25;;;;;;;10.55;3.60;;;;;;;;;;5105069;28;20509;-69
2022/12/06 01:43:51;;;;;;;9.65;3.75;;;;;;;;;;5105037;28;20044;-69
2022/12/06 01:46:17;;;;;;;12.45;4.85;;;;;;;;;;5105615;28;20063;-69
2022/12/06 01:48:44;;;;;;;11.48;3.95;;;;;;;;;;5104910;28;20055;-69
2022/12/06 01:51:12;;;;;;;10.93;4.00;;;;;;;;;;5084940;28;20038;-70
2022/12/06 01:53:38;;;;;;;8.57;3.35;;;;;;;;;;5104225;28;20093;-69
2022/12/06 01:56:04;;;;;;;8.90;3.78;;;;;;;;;;5104800;28;20131;-70
2022/12/06 01:58:33;;;;;;;11.50;3.85;;;;;;;;;;5105419;28;20043;-69
2022/12/06 02:01:01;;;;;;;14.02;4.18;;;;;;;;;;5104717;28;20047;-69
2022/12/06 02:03:28;;;;;;;13.25;3.92;;;;;;;;;;5102547;28;20165;-70
2022/12/06 02:05:56;;;;;;;12.10;3.33;;;;;;;;;;5104920;28;20067;-69
2022/12/06 02:08:23;;;;;;;9.65;3.58;;;;;;;;;;5106013;28;20098;-69
2022/12/06 02:10:49;;;;;;;9.45;3.67;;;;;;;;;;5104413;28;20089;-70
2022/12/06 02:13:15;;;;;;;8.63;3.50;;;;;;;;;;5104701;28;20107;-69
2022/12/06 02:15:47;;;;;;;14.23;4.35;;;;;;;;;;5102050;28;20028;-69
2022/12/06 02:18:14;;;;;;;11.68;3.72;;;;;;;;;;5102266;28;20056;-69
2022/12/06 02:20:44;;;;;;;10.75;3.45;;;;;;;;;;5105215;28;20393;-70
2022/12/06 02:23:27;;;;;;;8.13;3.38;;;;;;;;;;5084292;28;20051;-69
2022/12/06 02:26:00;;;;;;;10.52;3.08;;;;;;;;;;5083983;28;20131;-69
2022/12/06 02:28:52;;;;;;;9.07;2.92;;;;;;;;;;5086174;28;20054;-69
2022/12/06 02:31:18;;;;;;;9.70;3.50;;;;;;;;;;5088963;28;20051;-69
2022/12/06 02:33:49;;;;;;;7.70;2.55;;;;;;;;;;5106120;28;20958;-70
2022/12/06 02:36:27;;;;;;;7.45;3.20;;;;;;;;;;5109250;28;20475;-69
2022/12/06 02:38:55;;;;;;;14.52;3.40;;;;;;;;;;5104554;28;20047;-69
2022/12/06 02:41:25;;;;;;;8.80;3.72;;;;;;;;;;5086034;28;20044;-69
2022/12/06 02:43:56;;;;;;;14.10;4.00;;;;;;;;;;5085230;28;20058;-69
2022/12/06 02:46:23;;;;;;;8.13;3.35;;;;;;;;;;5085365;28;20036;-70
2022/12/06 02:48:50;;;;;;;10.43;3.33;;;;;;;;;;5086353;28;20139;-69
2022/12/06 02:51:17;;;;;;;9.40;3.30;;;;;;;;;;5087293;28;20537;-69
2022/12/06 02:53:47;;;;;;;7.47;3.63;;;;;;;;;;5086570;28;20487;-69
2022/12/06 02:56:15;;;;;;;14.38;3.72;;;;;;;;;;5084082;28;20467;-70
2022/12/06 02:58:42;;;;;;;9.70;3.40;;;;;;;;;;5085009;28;20458;-69
2022/12/06 03:01:12;;;;;;;11.07;3.30;;;;;;;;;;5084183;28;20497;-69
2022/12/06 03:03:45;;;;;;;15.07;3.78;;;;;;;;;;5084120;28;20061;-69
2022/12/06 03:06:19;;;;;;;10.88;3.28;;;;;;;;;;5083716;28;20040;-69
2022/12/06 03:09:04;;;;;;;10.50;3.75;;;;;;;;;;5083977;28;20048;-69
2022/12/06 03:11:36;;;;;;;13.18;3.70;;;;;;;;;;5080685;28;20044;-70
2022/12/06 03:14:05;;;;;;;11.82;3.67;;;;;;;;;;5081289;28;20833;-69
2022/12/06 03:16:34;;;;;;;8.77;4.18;;;;;;;;;;5087037;28;20055;-70
2022/12/06 03:19:05;;;;;;;12.77;4.05;;;;;;;;;;5086691;28;20544;-69
2022/12/06 03:21:40;;;;;;;9.32;3.88;;;;;;;;;;5088120;28;20067;-69
2022/12/06 03:24:09;;;;;;;10.45;3.92;;;;;;;;;;5087565;28;20040;-69
2022/12/06 03:26:36;;;;;;;11.90;3.80;;;;;;;;;;5087228;28;20036;-69
2022/12/06 03:29:03;;;;;;;7.90;3.97;;;;;;;;;;5083598;28;20044;-69
2022/12/06 03:31:31;;;;;;;7.80;4.50;;;;;;;;;;5086051;28;20043;-69
2022/12/06 03:34:00;;;;;;;10.30;4.18;;;;;;;;;;5085344;28;20040;-69
2022/12/06 03:36:26;;;;;;;10.45;4.10;;;;;;;;;;5082260;28;20495;-69
2022/12/06 03:38:54;;;;;;;14.18;4.28;;;;;;;;;;5086382;28;20051;-69
2022/12/06 03:41:23;;;;;;;8.93;3.50;;;;;;;;;;5101790;28;20130;-70
2022/12/06 03:43:49;;;;;;;13.48;3.88;;;;;;;;;;5106545;28;20052;-69
2022/12/06 03:46:17;;;;;;;8.15;3.83;;;;;;;;;;5109005;27;20062;-69
2022/12/06 03:48:45;;;;;;;16.20;3.90;;;;;;;;;;5105813;28;20039;-69
2022/12/06 03:51:13;;;;;;;15.95;3.78;;;;;;;;;;5105669;28;20048;-69
2022/12/06 03:53:47;;;;;;;8.52;3.33;;;;;;;;;;5104025;28;20343;-70
2022/12/06 03:56:13;;;;;;;9.10;3.25;;;;;;;;;;5087441;28;20036;-69
2022/12/06 03:58:39;;;;;;;11.43;3.10;;;;;;;;;;5088574;28;20435;-69
2022/12/06 04:01:05;;;;;;;9.45;3.50;;;;;;;;;;5103646;28;20063;-69
2022/12/06 04:03:31;;;;;;;9.68;2.50;;;;;;;;;;5087758;28;20152;-69
2022/12/06 04:05:57;;;;;;;6.45;2.15;;;;;;;;;;5105465;28;20043;-70
2022/12/06 04:08:24;;;;;;;9.27;2.17;;;;;;;;;;5106820;28;20043;-69
2022/12/06 04:10:51;;;;;;;7.88;1.95;;;;;;;;;;5104082;28;20165;-69
2022/12/06 04:13:17;;;;;;;8.80;2.22;;;;;;;;;;5081957;28;20035;-69
2022/12/06 04:15:43;;;;;;;5.22;1.95;;;;;;;;;;5105410;28;20048;-70
2022/12/06 04:18:13;;;;;;;6.05;1.67;;;;;;;;;;5101086;28;20044;-69
2022/12/06 04:23:35;;;;;;;4.82;1.38;;;;;;;;;;5085105;28;20048;-69
2022/12/06 04:26:01;;;;;;;5.80;1.38;;;;;;;;;;5086388;28;20112;-69
2022/12/06 04:39:26;;;;;;;3.70;1.02;;;;;;;;;;5103819;28;20043;-69
2022/12/06 04:44:38;;;;;;;7.65;2.65;;;;;;;;;;5082757;28;20035;-69
2022/12/06 04:47:05;;;;;;;4.80;1.20;;;;;;;;;;5101665;28;20348;-69
2022/12/06 04:49:31;;;;;;;5.13;1.20;;;;;;;;;;5103661;28;20110;-69
2022/12/06 04:51:57;;;;;;;6.13;1.40;;;;;;;;;;5083828;28;20031;-69
2022/12/06 04:54:23;;;;;;;5.70;1.20;;;;;;;;;;5101956;28;20119;-69
2022/12/06 04:56:49;;;;;;;10.10;1.92;;;;;;;;;;5102790;28;20054;-69
2022/12/06 04:59:16;;;;;;;5.22;1.50;;;;;;;;;;5100802;28;20044;-70
2022/12/06 05:01:42;;;;;;;8.00;1.77;;;;;;;;;;5100776;28;20419;-69
2022/12/06 05:04:08;;;;;;;4.90;1.70;;;;;;;;;;5085284;28;20078;-69
2022/12/06 05:06:34;;;;;;;9.75;1.55;;;;;;;;;;5083648;28;20078;-69
2022/12/06 05:09:00;;;;;;;3.50;1.20;;;;;;;;;;5085183;28;20066;-69
2022/12/06 05:11:26;;;;;;;7.28;1.90;;;;;;;;;;5104128;28;20047;-69
2022/12/06 05:13:53;;;;;;;5.65;1.30;;;;;;;;;;5087177;28;20127;-69
2022/12/06 05:16:19;;;;;;;6.38;1.35;;;;;;;;;;5085943;28;20059;-69
2022/12/06 05:18:45;;;;;;;4.47;1.58;;;;;;;;;;5087350;28;20039;-69
2022/12/06 05:21:14;;;;;;;5.65;1.35;;;;;;;;;;5104945;28;20043;-69
2022/12/06 05:23:40;;;;;;;4.53;1.48;;;;;;;;;;5104313;28;20119;-69
2022/12/06 05:26:08;;;;;;;8.25;1.35;;;;;;;;;;5105771;28;20131;-69
2022/12/06 05:28:34;;;;;;;5.28;1.40;;;;;;;;;;5087428;28;20389;-69
2022/12/06 05:31:00;;;;;;;3.42;1.33;;;;;;;;;;5105509;28;20058;-69
2022/12/06 05:33:27;;;;;;;7.00;1.60;;;;;;;;;;5087309;28;20126;-69
2022/12/06 05:35:53;;;;;;;6.10;1.67;;;;;;;;;;5104748;28;20044;-69
2022/12/06 05:38:20;;;;;;;4.25;1.08;;;;;;;;;;5105112;28;22034;-69
2022/12/06 05:40:46;;;;;;;4.63;1.40;;;;;;;;;;5104269;28;20242;-75
2022/12/06 05:43:13;;;;;;;9.85;1.45;;;;;;;;;;5083664;28;20392;-69
2022/12/06 05:45:39;;;;;;;7.50;1.55;;;;;;;;;;5101104;28;20062;-69
2022/12/06 05:48:05;;;;;;;3.33;1.27;;;;;;;;;;5097598;28;20047;-70
2022/12/06 05:50:32;;;;;;;6.28;1.60;;;;;;;;;;5098052;28;20035;-69
2022/12/06 05:52:59;;;;;;;7.00;1.38;;;;;;;;;;5101165;28;20126;-68
2022/12/06 05:55:25;;;;;;;6.20;1.73;;;;;;;;;;5102881;28;20492;-69
2022/12/06 05:57:51;;;;;;;5.07;1.75;;;;;;;;;;5103689;28;20640;-69
2022/12/06 06:00:18;;;;;;;6.18;1.88;;;;;;;;;;5088893;28;20506;-69
2022/12/06 06:02:45;;;;;;;8.48;1.80;;;;;;;;;;5101087;28;20054;-69
2022/12/06 06:05:11;;;;;;;3.80;1.60;;;;;;;;;;5111687;28;20363;-70
2022/12/06 06:07:37;;;;;;;9.25;1.75;;;;;;;;;;5109001;28;20514;-70
2022/12/06 06:10:04;;;;;;;3.30;1.40;;;;;;;;;;5100806;28;20032;-69
2022/12/06 06:12:30;;;;;;;6.30;1.35;;;;;;;;;;5101185;28;20039;-70
2022/12/06 06:14:57;;;;;;;5.40;1.85;;;;;;;;;;5103371;28;20044;-68
2022/12/06 06:17:23;;;;;;;6.13;1.70;;;;;;;;;;5102262;28;20084;-68
2022/12/06 06:19:49;;;;;;;5.97;1.73;;;;;;;;;;5103370;28;20044;-69
2022/12/06 06:22:17;;;;;;;4.93;2.10;;;;;;;;;;5086797;28;20043;-68
2022/12/06 06:24:44;;;;;;;7.28;2.20;;;;;;;;;;5086645;28;20092;-69
2022/12/06 06:27:10;;;;;;;5.53;2.10;;;;;;;;;;5102541;28;20167;-68
2022/12/06 06:29:36;;;;;;;5.07;2.13;;;;;;;;;;5085957;28;20046;-68
2022/12/06 06:32:02;;;;;;;9.68;2.40;;;;;;;;;;5087398;28;20078;-68
2022/12/06 06:34:29;;;;;;;4.63;1.83;;;;;;;;;;5089776;28;20036;-68
2022/12/06 06:36:55;;;;;;;6.70;2.15;;;;;;;;;;5090049;28;20522;-68
2022/12/06 06:39:21;;;;;;;5.75;1.80;;;;;;;;;;5087385;28;20070;-68
2022/12/06 06:41:47;;;;;;;3.70;1.55;;;;;;;;;;5093266;28;20079;-68
2022/12/06 06:44:13;;;;;;;3.85;1.75;;;;;;;;;;5111200;28;20113;-68
2022/12/06 06:46:40;;;;;;;2.65;1.30;;;;;;;;;;5110310;28;20040;-68
2022/12/06 06:49:06;;;;;;;7.07;2.00;;;;;;;;;;5109739;28;20035;-68
2022/12/06 06:51:33;;;;;;;3.70;1.40;;;;;;;;;;5111209;28;20093;-68
2022/12/06 06:53:59;;;;;;;5.07;2.05;;;;;;;;;;5109566;28;20123;-68
2022/12/06 06:56:25;;;;;;;6.10;2.40;;;;;;;;;;5088450;28;20555;-68
2022/12/06 06:58:52;;;;;;;9.90;2.22;;;;;;;;;;5087958;28;20043;-69
2022/12/06 07:01:19;;;;;;;6.15;2.38;;;;;;;;;;5090378;28;20043;-68
2022/12/06 07:03:45;;;;;;;12.90;2.72;;;;;;;;;;5090717;28;20126;-68
2022/12/06 07:06:12;;;;;;;5.80;2.30;;;;;;;;;;5088959;28;20498;-68
2022/12/06 07:08:38;;;;;;;7.97;2.63;;;;;;;;;;5107427;28;20047;-69
2022/12/06 07:11:05;;;;;;;6.28;2.67;;;;;;;;;;5106860;28;20034;-68
2022/12/06 07:13:31;;;;;;;5.88;2.45;;;;;;;;;;5107858;28;20036;-69
2022/12/06 07:15:58;;;;;;;8.23;2.55;;;;;;;;;;5105375;28;20051;-69
2022/12/06 07:18:24;;;;;;;10.40;3.13;;;;;;;;;;5090223;28;20169;-68
2022/12/06 07:20:58;;;;;;;8.15;2.53;;;;;;;;;;5105653;28;20074;-68
2022/12/06 07:23:24;;;;;;;6.68;2.72;;;;;;;;;;5106012;28;20052;-68
2022/12/06 07:26:00;;;;;;;6.45;2.05;;;;;;;;;;5085564;28;20055;-69
2022/12/06 07:28:26;;;;;;;5.97;1.90;;;;;;;;;;5105381;28;20040;-68
2022/12/06 07:30:53;;;;;;;3.88;1.80;;;;;;;;;;5088583;28;20051;-69
2022/12/06 07:33:19;;;;;;;6.05;2.28;;;;;;;;;;5106129;28;20042;-68
2022/12/06 07:35:50;;;;;;;5.45;2.00;;;;;;;;;;5087686;28;20159;-68
2022/12/06 07:38:16;;;;;;;5.88;2.28;;;;;;;;;;5087963;28;20040;-68
2022/12/06 07:40:42;;;;;;;10.50;2.40;;;;;;;;;;5106388;28;20104;-69
2022/12/06 07:45:54;;;;;;;7.30;2.78;;;;;;;;;;5107510;28;20462;-66
2022/12/06 07:48:20;;;;;;;9.38;3.33;;;;;;;;;;5086206;28;20113;-67
2022/12/06 07:50:46;;;;;;;12.15;2.60;;;;;;;;;;5105853;28;20127;-66
2022/12/06 07:53:13;;;;;;;4.65;2.00;;;;;;;;;;5107652;28;20043;-66
2022/12/06 07:55:39;;;;;;;5.35;2.40;;;;;;;;;;5085568;28;20044;-66
2022/12/06 07:58:05;;;;;;;11.25;2.53;;;;;;;;;;5105957;28;20032;-66
2022/12/06 08:00:31;;;;;;;6.03;2.95;;;;;;;;;;5087472;28;20056;-66
2022/12/06 08:02:57;;;;;;;14.23;2.72;;;;;;;;;;5087243;28;20055;-66
2022/12/06 08:05:24;;;;;;;7.15;2.22;;;;;;;;;;5088375;28;20172;-67
2022/12/06 08:07:50;;;;;;;4.65;1.95;;;;;;;;;;5106383;28;20493;-67
2022/12/06 08:10:16;;;;;;;8.18;3.88;;;;;;;;;;5088519;28;20122;-67
2022/12/06 08:12:42;;;;;;;4.95;2.17;;;;;;;;;;5105192;28;20035;-67
2022/12/06 08:15:11;;;;;;;11.15;2.67;;;;;;;;;;5105257;28;20103;-67
2022/12/06 08:17:39;;;;;;;6.53;2.20;;;;;;;;;;5103342;28;20035;-67
2022/12/06 08:20:06;;;;;;;13.98;2.67;;;;;;;;;;5105884;28;20483;-67
2022/12/06 08:22:32;;;;;;;9.20;2.60;;;;;;;;;;5105783;28;20190;-67
2022/12/06 08:24:59;;;;;;;12.30;3.05;;;;;;;;;;5104579;28;20145;-67
2022/12/06 08:27:25;;;;;;;6.47;3.20;;;;;;;;;;5104570;28;20065;-68
2022/12/06 08:29:51;;;;;;;5.90;2.50;;;;;;;;;;5087273;28;20104;-68
2022/12/06 08:32:17;;;;;;;5.60;2.65;;;;;;;;;;5104386;28;20074;-67
2022/12/06 08:34:43;;;;;;;7.13;2.53;;;;;;;;;;5104760;28;20039;-67
2022/12/06 08:37:10;;;;;;;5.82;2.42;;;;;;;;;;5105628;28;20434;-67
2022/12/06 08:39:36;;;;;;;8.32;3.13;;;;;;;;;;5104783;28;20039;-66
2022/12/06 08:42:05;;;;;;;7.00;2.90;;;;;;;;;;5105129;28;20051;-67
2022/12/06 08:44:31;;;;;;;9.20;3.38;;;;;;;;;;5086444;28;20039;-67
2022/12/06 08:46:59;;;;;;;9.15;3.65;;;;;;;;;;5106724;28;20047;-67
2022/12/06 08:49:27;;;;;;;8.75;2.97;;;;;;;;;;5106355;28;20119;-67
2022/12/06 08:51:53;;;;;;;10.00;3.10;;;;;;;;;;5104701;28;20084;-67
2022/12/06 08:54:21;;;;;;;9.35;3.55;;;;;;;;;;5087139;28;20031;-67
2022/12/06 08:56:47;;;;;;;12.63;3.95;;;;;;;;;;5109802;28;20126;-66
2022/12/06 08:59:13;;;;;;;6.47;3.22;;;;;;;;;;5104914;28;20181;-67
2022/12/06 09:01:40;;;;;;;10.48;3.47;;;;;;;;;;5109523;28;20126;-67
2022/12/06 09:04:07;;;;;;;13.75;3.25;;;;;;;;;;5108923;28;20036;-67
2022/12/06 09:06:33;;;;;;;10.40;3.60;;;;;;;;;;5106228;28;20112;-66
2022/12/06 09:09:00;;;;;;;7.55;3.30;;;;;;;;;;5106368;28;20112;-67
2022/12/06 09:11:26;;;;;;;10.02;3.70;;;;;;;;;;5103947;28;20126;-67
2022/12/06 09:13:52;;;;;;;8.88;3.03;;;;;;;;;;5085785;28;20608;-67
2022/12/06 09:16:21;;;;;;;5.95;3.33;;;;;;;;;;5106611;28;20043;-67
2022/12/06 09:18:47;;;;;;;8.25;3.33;;;;;;;;;;5105139;28;20047;-67
2022/12/06 09:21:16;;;;;;;11.05;4.30;;;;;;;;;;5104043;28;20039;-67
2022/12/06 09:23:42;;;;;;;6.70;3.40;;;;;;;;;;5102677;28;20477;-67
2022/12/06 09:26:08;;;;;;;7.43;3.35;;;;;;;;;;5084150;28;20041;-67
2022/12/06 09:28:36;;;;;;;7.75;3.30;;;;;;;;;;5085896;28;20488;-67
2022/12/06 09:31:03;;;;;;;7.38;3.42;;;;;;;;;;5106832;28;20051;-67
2022/12/06 09:33:30;;;;;;;7.00;4.40;;;;;;;;;;5105639;28;20414;-67
2022/12/06 09:35:56;;;;;;;11.43;3.72;;;;;;;;;;5088592;28;20564;-67
2022/12/06 09:38:26;;;;;;;7.18;3.15;;;;;;;;;;5106049;28;20035;-67
2022/12/06 09:40:59;;;;;;;12.25;3.55;;;;;;;;;;5104540;28;20598;-67
2022/12/06 09:43:32;;;;;;;8.32;3.47;;;;;;;;;;5105892;28;20126;-67
2022/12/06 09:46:01;;;;;;;5.45;2.92;;;;;;;;;;5105112;28;20046;-67
2022/12/06 09:48:37;;;;;;;10.18;3.42;;;;;;;;;;5103480;28;20100;-67
2022/12/06 09:51:22;;;;;;;8.60;3.75;;;;;;;;;;5103866;28;20070;-67
2022/12/06 09:54:09;;;;;;;7.97;2.67;;;;;;;;;;5103754;28;20039;-67
2022/12/06 09:56:38;;;;;;;8.95;2.97;;;;;;;;;;5081294;28;20479;-67
2022/12/06 09:59:05;;;;;;;11.82;3.00;;;;;;;;;;5084159;28;20436;-67
2022/12/06 10:01:33;;;;;;;9.48;3.20;;;;;;;;;;5104264;28;20976;-67
2022/12/06 10:04:05;;;;;;;8.75;3.25;;;;;;;;;;5103899;28;20505;-66
2022/12/06 10:06:37;;;;;;;10.45;3.72;;;;;;;;;;5101553;28;20031;-67
2022/12/06 10:09:03;;;;;;;12.10;3.85;;;;;;;;;;5103257;28;20047;-67
2022/12/06 10:11:39;;;;;;;9.98;4.65;;;;;;;;;;5104970;28;20044;-67
2022/12/06 10:14:05;;;;;;;7.32;3.67;;;;;;;;;;5102669;28;20044;-67
2022/12/06 10:16:40;;;;;;;14.35;4.30;;;;;;;;;;5104125;28;20039;-67
2022/12/06 10:19:07;;;;;;;11.00;3.13;;;;;;;;;;5086983;28;20040;-66
2022/12/06 10:21:34;;;;;;;7.63;3.50;;;;;;;;;;5103487;28;20087;-66
2022/12/06 10:24:11;;;;;;;12.65;3.80;;;;;;;;;;5103219;28;20351;-66
2022/12/06 10:26:44;;;;;;;11.35;3.47;;;;;;;;;;5104566;28;20039;-67
2022/12/06 10:29:18;;;;;;;12.10;3.50;;;;;;;;;;5104851;28;20043;-66
2022/12/06 10:31:45;;;;;;;7.35;3.42;;;;;;;;;;5102649;28;20039;-67
2022/12/06 10:34:11;;;;;;;7.32;2.97;;;;;;;;;;5105632;28;20126;-66
2022/12/06 10:36:41;;;;;;;6.65;2.63;;;;;;;;;;5084815;28;20047;-69
2022/12/06 10:39:23;;;;;;;9.48;2.58;;;;;;;;;;5103579;28;20188;-67
2022/12/06 10:41:49;;;;;;;7.07;2.40;;;;;;;;;;5103727;28;20502;-66
2022/12/06 10:44:26;;;;;;;6.90;2.60;;;;;;;;;;5105882;28;20495;-66
2022/12/06 10:47:05;;;;;;;4.55;1.92;;;;;;;;;;5108800;28;20043;-66
2022/12/06 10:49:35;;;;;;;5.65;1.92;;;;;;;;;;5109730;28;20080;-66
2022/12/06 10:52:01;;;;;;;8.27;2.33;;;;;;;;;;5090323;28;20836;-66
2022/12/06 10:54:37;;;;;;;5.43;2.03;;;;;;;;;;5107062;28;20100;-66
2022/12/06 10:57:05;;;;;;;5.90;2.22;;;;;;;;;;5111519;28;20054;-66
2022/12/06 10:59:36;;;;;;;6.82;1.80;;;;;;;;;;5092379;28;20044;-66
2022/12/06 11:02:13;;;;;;;5.97;1.90;;;;;;;;;;5112227;28;20051;-66
2022/12/06 11:04:40;;;;;;;6.22;1.95;;;;;;;;;;5106220;28;20032;-66
2022/12/06 11:07:12;;;;;;;8.55;2.25;;;;;;;;;;5107265;28;20134;-66
2022/12/06 11:09:40;;;;;;;5.72;2.10;;;;;;;;;;5104930;28;20035;-67
2022/12/06 11:12:18;;;;;;;4.32;1.98;;;;;;;;;;5110424;28;20434;-66
2022/12/06 11:14:46;;;;;;;6.22;2.20;;;;;;;;;;5089924;28;20043;-66
2022/12/06 11:17:16;;;;;;;7.93;2.28;;;;;;;;;;5107575;28;20048;-66
2022/12/06 11:19:49;;;;;;;4.72;1.90;;;;;;;;;;5110238;28;20043;-66
2022/12/06 11:22:32;;;;;;;6.78;2.08;;;;;;;;;;5106359;28;20122;-66
2022/12/06 11:24:59;;;;;;;6.88;1.98;;;;;;;;;;5107328;28;20118;-66
2022/12/06 11:27:33;;;;;;;9.40;2.10;;;;;;;;;;5102636;28;20046;-66
2022/12/06 11:30:01;;;;;;;6.15;1.95;;;;;;;;;;5090345;28;20048;-66
2022/12/06 11:32:27;;;;;;;5.50;2.20;;;;;;;;;;5110893;28;20395;-66
2022/12/06 11:35:00;;;;;;;6.00;1.88;;;;;;;;;;5092390;28;20036;-67
2022/12/06 11:37:27;;;;;;;4.03;2.15;;;;;;;;;;5087935;28;20192;-66
2022/12/06 11:40:05;;;;;;;11.63;2.38;;;;;;;;;;5088309;28;20040;-66
2022/12/06 11:42:31;;;;;;;6.95;2.25;;;;;;;;;;5091767;28;20048;-66
2022/12/06 11:45:00;;;;;;;5.50;1.95;;;;;;;;;;5090972;28;20444;-66
2022/12/06 11:47:26;;;;;;;10.90;2.15;;;;;;;;;;5109385;28;20047;-67
2022/12/06 11:49:54;;;;;;;4.93;2.00;;;;;;;;;;5110429;28;20047;-67
2022/12/06 11:52:20;;;;;;;5.50;2.10;;;;;;;;;;5108127;28;20467;-67
2022/12/06 11:54:49;;;;;;;7.97;2.47;;;;;;;;;;5102910;28;20066;-67
2022/12/06 11:57:19;;;;;;;7.07;1.90;;;;;;;;;;5088757;28;20052;-66
2022/12/06 12:00:04;;;;;;;2.85;1.50;;;;;;;;;;5106676;28;20044;-68
2022/12/06 12:02:31;;;;;;;5.70;1.75;;;;;;;;;;5103321;28;20395;-67
2022/12/06 12:05:08;;;;;;;5.53;1.55;;;;;;;;;;5107226;28;20055;-67
2022/12/06 12:07:34;;;;;;;5.05;1.60;;;;;;;;;;5107622;28;20075;-65
2022/12/06 12:10:02;;;;;;;7.97;1.33;;;;;;;;;;5105796;28;20707;-67
2022/12/06 12:15:29;;;;;;;10.40;2.50;;;;;;;;;;5103673;28;20043;-67
2022/12/06 12:17:57;;;;;;;6.55;2.72;;;;;;;;;;5107860;28;20092;-68
2022/12/06 12:20:26;;;;;;;11.25;4.38;;;;;;;;;;5107413;28;20051;-67
2022/12/06 12:22:59;;;;;;;9.27;5.10;;;;;;;;;;5104771;28;20535;-67
2022/12/06 12:25:27;;;;;;;5.88;2.03;;;;;;;;;;5104070;28;20114;-67
2022/12/06 12:27:55;;;;;;;10.40;1.60;;;;;;;;;;5088405;28;20039;-67
2022/12/06 12:30:21;;;;;;;3.70;1.40;;;;;;;;;;5087298;28;20050;-68
2022/12/06 12:32:48;;;;;;;8.30;1.65;;;;;;;;;;5087016;28;20080;-67
2022/12/06 12:35:21;;;;;;;8.18;1.33;;;;;;;;;;5084869;28;20050;-67
2022/12/06 12:37:50;;;;;;;5.38;1.48;;;;;;;;;;5088238;28;20074;-67
2022/12/06 12:40:22;;;;;;;5.05;1.55;;;;;;;;;;5107320;28;20379;-67
2022/12/06 12:42:48;;;;;;;2.97;1.27;;;;;;;;;;5106169;28;20074;-67
2022/12/06 12:45:19;;;;;;;3.63;1.20;;;;;;;;;;5105434;28;20475;-67
2022/12/06 12:47:56;;;;;;;3.75;1.15;;;;;;;;;;5107377;28;20039;-67
2022/12/06 12:50:22;;;;;;;5.60;1.70;;;;;;;;;;5088806;28;20096;-67
2022/12/06 12:52:50;;;;;;;6.97;1.38;;;;;;;;;;5106269;28;20031;-67
2022/12/06 12:55:18;;;;;;;8.25;1.85;;;;;;;;;;5107472;28;20043;-67
2022/12/06 12:57:52;;;;;;;5.97;1.60;;;;;;;;;;5105472;28;20762;-67
2022/12/06 13:00:20;;;;;;;5.95;1.30;;;;;;;;;;5104950;28;20040;-68
2022/12/06 13:02:53;;;;;;;7.03;1.42;;;;;;;;;;5084428;28;20052;-67
2022/12/06 13:05:21;;;;;;;4.03;1.52;;;;;;;;;;5081393;28;20039;-67
2022/12/06 13:07:48;;;;;;;9.55;1.70;;;;;;;;;;5104250;28;20043;-67
2022/12/06 13:10:15;;;;;;;6.05;1.20;;;;;;;;;;5104587;28;20040;-67
2022/12/06 13:12:43;;;;;;;6.80;1.40;;;;;;;;;;5101252;28;20080;-67
2022/12/06 13:15:19;;;;;;;6.40;1.48;;;;;;;;;;5088712;28;20039;-67
2022/12/06 13:17:49;;;;;;;4.70;1.35;;;;;;;;;;5086701;28;20051;-69
2022/12/06 13:20:19;;;;;;;6.10;1.48;;;;;;;;;;5089777;28;21317;-69
2022/12/06 13:22:46;;;;;;;5.18;1.73;;;;;;;;;;5090438;28;20061;-69
2022/12/06 13:25:13;;;;;;;6.40;1.48;;;;;;;;;;5073256;28;20134;-69
2022/12/06 13:27:42;;;;;;;5.07;1.20;;;;;;;;;;5108226;28;20039;-69
2022/12/06 13:30:12;;;;;;;5.88;1.52;;;;;;;;;;5106211;28;20390;-68
2022/12/06 13:32:42;;;;;;;3.15;1.55;;;;;;;;;;5108660;28;20092;-68
2022/12/06 13:35:23;;;;;;;11.45;1.50;;;;;;;;;;5089782;28;20131;-68
2022/12/06 13:37:59;;;;;;;2.58;1.02;;;;;;;;;;5078330;28;20100;-68
2022/12/06 13:40:45;;;;;;;3.33;1.15;;;;;;;;;;5088101;28;20044;-68
2022/12/06 13:43:23;;;;;;;6.32;1.52;;;;;;;;;;5090529;28;20361;-69
2022/12/06 13:45:55;;;;;;;5.03;1.30;;;;;;;;;;5108851;28;20070;-68
2022/12/06 13:48:37;;;;;;;6.13;1.30;;;;;;;;;;5107044;28;20104;-68
2022/12/06 13:51:11;;;;;;;7.15;1.42;;;;;;;;;;5106634;28;20040;-68
2022/12/06 13:54:12;;;;;;;3.90;1.10;;;;;;;;;;5109259;28;20395;-69
2022/12/06 13:56:40;;;;;;;6.30;1.30;;;;;;;;;;5087360;28;20114;-68
2022/12/06 13:59:13;;;;;;;5.65;1.08;;;;;;;;;;5108063;28;20046;-68
2022/12/06 14:01:40;;;;;;;8.82;1.55;;;;;;;;;;5106705;28;20086;-68
2022/12/06 14:04:25;;;;;;;3.47;1.30;;;;;;;;;;5107964;28;20074;-68
2022/12/06 14:06:54;;;;;;;4.65;1.58;;;;;;;;;;5107870;28;20715;-68
2022/12/06 14:09:22;;;;;;;8.00;1.45;;;;;;;;;;5088299;28;20120;-68
2022/12/06 14:11:48;;;;;;;4.65;1.48;;;;;;;;;;5106182;28;20051;-68
2022/12/06 14:14:16;;;;;;;8.20;1.38;;;;;;;;;;5108557;28;20537;-69
2022/12/06 14:16:45;;;;;;;7.40;1.58;;;;;;;;;;5107624;28;20035;-68
2022/12/06 14:19:19;;;;;;;6.35;1.63;;;;;;;;;;5110226;28;20044;-69
2022/12/06 14:21:52;;;;;;;10.10;1.25;;;;;;;;;;5111733;28;20114;-68
2022/12/06 14:24:25;;;;;;;7.55;1.45;;;;;;;;;;5093145;28;20050;-68
2022/12/06 14:26:51;;;;;;;5.32;1.25;;;;;;;;;;5093397;28;20048;-68
2022/12/06 14:29:22;;;;;;;5.82;1.00;;;;;;;;;;5092725;28;20075;-68
2022/12/06 14:31:50;;;;;;;6.20;1.23;;;;;;;;;;5111432;28;20031;-69
2022/12/06 14:34:25;;;;;;;6.53;1.13;;;;;;;;;;5112614;28;20395;-68
2022/12/06 14:36:52;;;;;;;4.13;1.15;;;;;;;;;;5108135;28;20084;-68
2022/12/06 14:39:19;;;;;;;5.78;0.95;;;;;;;;;;5089617;28;20056;-68
2022/12/06 14:44:38;;;;;;;7.30;0.90;;;;;;;;;;5108579;28;20043;-68
2022/12/06 14:47:04;;;;;;;5.18;1.10;;;;;;;;;;5111733;28;20097;-68
2022/12/06 14:52:19;;;;;;;3.80;1.20;;;;;;;;;;5107796;28;20100;-68
2022/12/06 14:54:45;;;;;;;10.35;0.95;;;;;;;;;;5110560;28;20051;-68
2022/12/06 14:57:18;;;;;;;3.63;1.35;;;;;;;;;;5090560;28;20525;-68
2022/12/06 14:59:44;;;;;;;3.80;1.40;;;;;;;;;;5090886;28;20127;-68
2022/12/06 15:02:20;;;;;;;4.75;1.55;;;;;;;;;;5100405;28;20047;-68
2022/12/06 15:04:47;;;;;;;7.80;1.40;;;;;;;;;;5104208;28;20082;-71
2022/12/06 15:07:31;;;;;;;8.95;1.83;;;;;;;;;;5108065;28;20097;-69
2022/12/06 15:10:07;;;;;;;4.78;1.38;;;;;;;;;;5106567;28;20112;-69
2022/12/06 15:15:33;;;;;;;4.90;1.25;;;;;;;;;;5088943;28;20345;-69
2022/12/06 15:18:13;;;;;;;3.40;1.35;;;;;;;;;;5105862;28;20043;-70
2022/12/06 15:20:39;;;;;;;8.02;1.65;;;;;;;;;;5089091;28;20181;-70